sensor_id;sensor_type;location;lat;lon;timestamp;temperature;humidity
74224;SHT31;62585;49.706;18.216;2023-08-17T00:01:47;22.46;78.39
74224;SHT31;62585;49.706;18.216;2023-08-17T00:04:13;22.29;78.22
74224;SHT31;62585;49.706;18.216;2023-08-17T00:06:39;22.29;78.39
74224;SHT31;62585;49.706;18.216;2023-08-17T00:09:05;22.22;78.83
74224;SHT31;62585;49.706;18.216;2023-08-17T00:11:32;22.19;78.95
74224;SHT31;62585;49.706;18.216;2023-08-17T00:13:58;22.31;78.86
74224;SHT31;62585;49.706;18.216;2023-08-17T00:16:23;22.28;78.57
74224;SHT31;62585;49.706;18.216;2023-08-17T00:18:49;22.04;78.98
74224;SHT31;62585;49.706;18.216;2023-08-17T00:21:15;22.00;79.09
74224;SHT31;62585;49.706;18.216;2023-08-17T00:23:41;21.49;81.83
74224;SHT31;62585;49.706;18.216;2023-08-17T00:26:07;21.68;81.25
74224;SHT31;62585;49.706;18.216;2023-08-17T00:28:33;21.73;81.19
74224;SHT31;62585;49.706;18.216;2023-08-17T00:31:00;21.77;80.37
74224;SHT31;62585;49.706;18.216;2023-08-17T00:33:26;21.84;80.12
74224;SHT31;62585;49.706;18.216;2023-08-17T00:35:51;21.83;80.49
74224;SHT31;62585;49.706;18.216;2023-08-17T00:38:17;22.02;79.09
74224;SHT31;62585;49.706;18.216;2023-08-17T00:40:43;22.16;79.88
74224;SHT31;62585;49.706;18.216;2023-08-17T00:43:09;22.42;78.88
74224;SHT31;62585;49.706;18.216;2023-08-17T00:45:35;22.33;79.56
74224;SHT31;62585;49.706;18.216;2023-08-17T00:48:01;22.25;79.62
74224;SHT31;62585;49.706;18.216;2023-08-17T00:50:27;22.16;80.05
74224;SHT31;62585;49.706;18.216;2023-08-17T00:52:55;22.26;80.03
74224;SHT31;62585;49.706;18.216;2023-08-17T00:55:21;22.29;79.81
74224;SHT31;62585;49.706;18.216;2023-08-17T00:57:47;22.09;80.41
74224;SHT31;62585;49.706;18.216;2023-08-17T01:00:13;22.06;80.61
74224;SHT31;62585;49.706;18.216;2023-08-17T01:02:42;22.11;80.80
74224;SHT31;62585;49.706;18.216;2023-08-17T01:05:09;22.04;80.70
74224;SHT31;62585;49.706;18.216;2023-08-17T01:07:34;22.11;80.49
74224;SHT31;62585;49.706;18.216;2023-08-17T01:10:01;22.22;80.13
74224;SHT31;62585;49.706;18.216;2023-08-17T01:12:29;22.01;80.86
74224;SHT31;62585;49.706;18.216;2023-08-17T01:15:14;22.15;80.84
74224;SHT31;62585;49.706;18.216;2023-08-17T01:17:58;21.98;81.01
74224;SHT31;62585;49.706;18.216;2023-08-17T01:20:30;21.93;81.24
74224;SHT31;62585;49.706;18.216;2023-08-17T01:23:06;21.95;81.25
74224;SHT31;62585;49.706;18.216;2023-08-17T01:25:32;22.06;81.30
74224;SHT31;62585;49.706;18.216;2023-08-17T01:28:03;22.08;81.03
74224;SHT31;62585;49.706;18.216;2023-08-17T01:30:47;22.22;80.54
74224;SHT31;62585;49.706;18.216;2023-08-17T01:33:23;22.15;80.84
74224;SHT31;62585;49.706;18.216;2023-08-17T01:38:42;21.98;81.34
74224;SHT31;62585;49.706;18.216;2023-08-17T01:41:10;22.04;81.36
74224;SHT31;62585;49.706;18.216;2023-08-17T01:43:44;22.22;81.17
74224;SHT31;62585;49.706;18.216;2023-08-17T01:46:13;22.12;81.49
74224;SHT31;62585;49.706;18.216;2023-08-17T01:48:40;22.02;81.64
74224;SHT31;62585;49.706;18.216;2023-08-17T01:51:06;22.11;81.55
74224;SHT31;62585;49.706;18.216;2023-08-17T01:53:31;22.01;81.76
74224;SHT31;62585;49.706;18.216;2023-08-17T01:55:57;21.94;81.86
74224;SHT31;62585;49.706;18.216;2023-08-17T01:58:23;21.97;81.96
74224;SHT31;62585;49.706;18.216;2023-08-17T02:00:49;21.95;81.64
74224;SHT31;62585;49.706;18.216;2023-08-17T02:03:14;22.02;81.74
74224;SHT31;62585;49.706;18.216;2023-08-17T02:05:46;22.28;81.01
74224;SHT31;62585;49.706;18.216;2023-08-17T02:08:12;22.31;80.64
74224;SHT31;62585;49.706;18.216;2023-08-17T02:21:12;22.15;81.39
74224;SHT31;62585;49.706;18.216;2023-08-17T02:23:38;22.06;81.73
74224;SHT31;62585;49.706;18.216;2023-08-17T02:26:03;22.12;81.50
74224;SHT31;62585;49.706;18.216;2023-08-17T02:28:29;22.19;81.27
74224;SHT31;62585;49.706;18.216;2023-08-17T02:30:56;22.32;80.60
74224;SHT31;62585;49.706;18.216;2023-08-17T02:33:22;22.35;80.48
74224;SHT31;62585;49.706;18.216;2023-08-17T02:35:49;22.39;80.13
74224;SHT31;62585;49.706;18.216;2023-08-17T02:38:15;22.28;80.29
74224;SHT31;62585;49.706;18.216;2023-08-17T02:40:41;22.38;80.27
74224;SHT31;62585;49.706;18.216;2023-08-17T02:43:07;22.35;80.49
74224;SHT31;62585;49.706;18.216;2023-08-17T02:45:33;22.42;80.31
74224;SHT31;62585;49.706;18.216;2023-08-17T02:47:59;22.38;80.26
74224;SHT31;62585;49.706;18.216;2023-08-17T02:50:25;22.42;80.22
74224;SHT31;62585;49.706;18.216;2023-08-17T02:52:51;22.26;80.58
74224;SHT31;62585;49.706;18.216;2023-08-17T02:55:17;22.25;80.61
74224;SHT31;62585;49.706;18.216;2023-08-17T02:57:43;22.19;80.85
74224;SHT31;62585;49.706;18.216;2023-08-17T03:00:09;22.12;81.43
74224;SHT31;62585;49.706;18.216;2023-08-17T03:02:35;21.98;81.71
74224;SHT31;62585;49.706;18.216;2023-08-17T03:05:01;22.04;81.55
74224;SHT31;62585;49.706;18.216;2023-08-17T03:07:27;22.21;81.15
74224;SHT31;62585;49.706;18.216;2023-08-17T03:09:53;22.23;80.92
74224;SHT31;62585;49.706;18.216;2023-08-17T03:12:18;22.12;81.19
74224;SHT31;62585;49.706;18.216;2023-08-17T03:14:44;22.16;81.33
74224;SHT31;62585;49.706;18.216;2023-08-17T03:17:10;22.18;81.56
74224;SHT31;62585;49.706;18.216;2023-08-17T03:19:35;22.13;81.63
74224;SHT31;62585;49.706;18.216;2023-08-17T03:22:01;22.22;81.34
74224;SHT31;62585;49.706;18.216;2023-08-17T03:24:27;22.13;81.42
74224;SHT31;62585;49.706;18.216;2023-08-17T03:26:53;22.05;81.71
74224;SHT31;62585;49.706;18.216;2023-08-17T03:29:18;22.08;81.74
74224;SHT31;62585;49.706;18.216;2023-08-17T03:31:44;22.15;81.40
74224;SHT31;62585;49.706;18.216;2023-08-17T03:34:11;22.13;81.47
74224;SHT31;62585;49.706;18.216;2023-08-17T03:36:37;22.18;81.37
74224;SHT31;62585;49.706;18.216;2023-08-17T03:39:03;22.13;81.46
74224;SHT31;62585;49.706;18.216;2023-08-17T03:41:29;22.16;81.41
74224;SHT31;62585;49.706;18.216;2023-08-17T03:43:55;22.21;81.17
74224;SHT31;62585;49.706;18.216;2023-08-17T03:46:21;22.18;81.18
74224;SHT31;62585;49.706;18.216;2023-08-17T03:48:47;22.04;81.83
74224;SHT31;62585;49.706;18.216;2023-08-17T03:51:12;22.12;81.72
74224;SHT31;62585;49.706;18.216;2023-08-17T03:53:40;22.18;81.34
74224;SHT31;62585;49.706;18.216;2023-08-17T03:56:09;22.21;81.08
74224;SHT31;62585;49.706;18.216;2023-08-17T03:58:34;22.16;81.24
74224;SHT31;62585;49.706;18.216;2023-08-17T04:01:01;22.28;80.87
74224;SHT31;62585;49.706;18.216;2023-08-17T04:03:27;22.26;80.96
74224;SHT31;62585;49.706;18.216;2023-08-17T04:05:53;22.13;81.31
74224;SHT31;62585;49.706;18.216;2023-08-17T04:08:21;22.06;81.49
74224;SHT31;62585;49.706;18.216;2023-08-17T04:10:47;21.94;81.64
74224;SHT31;62585;49.706;18.216;2023-08-17T04:13:12;22.08;81.01
74224;SHT31;62585;49.706;18.216;2023-08-17T04:15:38;22.12;81.38
74224;SHT31;62585;49.706;18.216;2023-08-17T04:18:04;22.15;81.12
74224;SHT31;62585;49.706;18.216;2023-08-17T04:20:30;22.23;81.26
74224;SHT31;62585;49.706;18.216;2023-08-17T04:22:56;22.19;81.32
74224;SHT31;62585;49.706;18.216;2023-08-17T04:25:21;22.06;82.30
74224;SHT31;62585;49.706;18.216;2023-08-17T04:27:47;22.06;82.06
74224;SHT31;62585;49.706;18.216;2023-08-17T04:30:13;22.25;81.77
74224;SHT31;62585;49.706;18.216;2023-08-17T04:32:39;22.33;81.03
74224;SHT31;62585;49.706;18.216;2023-08-17T04:35:05;22.29;81.66
74224;SHT31;62585;49.706;18.216;2023-08-17T04:37:31;22.35;81.77
74224;SHT31;62585;49.706;18.216;2023-08-17T04:39:56;22.48;80.94
74224;SHT31;62585;49.706;18.216;2023-08-17T04:42:22;22.50;80.95
74224;SHT31;62585;49.706;18.216;2023-08-17T04:44:50;22.36;81.54
74224;SHT31;62585;49.706;18.216;2023-08-17T04:47:15;22.42;81.72
74224;SHT31;62585;49.706;18.216;2023-08-17T04:49:41;22.46;82.34
74224;SHT31;62585;49.706;18.216;2023-08-17T04:52:07;22.48;82.49
74224;SHT31;62585;49.706;18.216;2023-08-17T04:54:33;22.66;81.74
74224;SHT31;62585;49.706;18.216;2023-08-17T04:56:59;22.86;81.51
74224;SHT31;62585;49.706;18.216;2023-08-17T04:59:25;22.91;81.36
74224;SHT31;62585;49.706;18.216;2023-08-17T05:01:50;22.64;82.38
74224;SHT31;62585;49.706;18.216;2023-08-17T05:04:17;22.76;81.96
74224;SHT31;62585;49.706;18.216;2023-08-17T05:06:42;23.04;81.50
74224;SHT31;62585;49.706;18.216;2023-08-17T05:09:08;23.14;81.76
74224;SHT31;62585;49.706;18.216;2023-08-17T05:11:34;23.17;81.66
74224;SHT31;62585;49.706;18.216;2023-08-17T05:14:00;23.38;81.40
74224;SHT31;62585;49.706;18.216;2023-08-17T05:16:26;23.42;81.40
74224;SHT31;62585;49.706;18.216;2023-08-17T05:18:52;23.55;81.48
74224;SHT31;62585;49.706;18.216;2023-08-17T05:21:18;23.54;81.67
74224;SHT31;62585;49.706;18.216;2023-08-17T05:23:44;23.55;81.96
74224;SHT31;62585;49.706;18.216;2023-08-17T05:26:09;23.56;81.54
74224;SHT31;62585;49.706;18.216;2023-08-17T05:28:35;23.59;81.87
74224;SHT31;62585;49.706;18.216;2023-08-17T05:31:05;23.67;81.11
74224;SHT31;62585;49.706;18.216;2023-08-17T05:33:32;23.67;81.02
74224;SHT31;62585;49.706;18.216;2023-08-17T05:35:58;23.65;80.90
74224;SHT31;62585;49.706;18.216;2023-08-17T05:38:24;23.46;81.18
74224;SHT31;62585;49.706;18.216;2023-08-17T05:40:56;23.61;80.76
74224;SHT31;62585;49.706;18.216;2023-08-17T05:43:23;23.76;80.71
74224;SHT31;62585;49.706;18.216;2023-08-17T05:45:49;23.89;80.43
74224;SHT31;62585;49.706;18.216;2023-08-17T05:48:14;23.93;80.25
74224;SHT31;62585;49.706;18.216;2023-08-17T05:50:43;24.03;79.77
74224;SHT31;62585;49.706;18.216;2023-08-17T05:53:09;23.96;79.91
74224;SHT31;62585;49.706;18.216;2023-08-17T05:55:35;23.83;80.73
74224;SHT31;62585;49.706;18.216;2023-08-17T05:58:01;24.06;80.25
74224;SHT31;62585;49.706;18.216;2023-08-17T06:00:27;24.06;79.71
74224;SHT31;62585;49.706;18.216;2023-08-17T06:02:53;24.04;79.97
74224;SHT31;62585;49.706;18.216;2023-08-17T06:05:23;24.02;79.47
74224;SHT31;62585;49.706;18.216;2023-08-17T06:07:51;24.03;79.99
74224;SHT31;62585;49.706;18.216;2023-08-17T06:10:17;24.00;80.25
74224;SHT31;62585;49.706;18.216;2023-08-17T06:12:43;24.06;79.76
74224;SHT31;62585;49.706;18.216;2023-08-17T06:15:09;24.11;79.24
74224;SHT31;62585;49.706;18.216;2023-08-17T06:17:35;24.20;79.32
74224;SHT31;62585;49.706;18.216;2023-08-17T06:20:01;24.24;78.61
74224;SHT31;62585;49.706;18.216;2023-08-17T06:22:28;23.96;78.72
74224;SHT31;62585;49.706;18.216;2023-08-17T06:24:54;24.21;78.77
74224;SHT31;62585;49.706;18.216;2023-08-17T06:27:20;24.48;78.00
74224;SHT31;62585;49.706;18.216;2023-08-17T06:29:46;24.69;77.78
74224;SHT31;62585;49.706;18.216;2023-08-17T06:32:12;24.88;76.87
74224;SHT31;62585;49.706;18.216;2023-08-17T06:34:37;24.68;77.12
74224;SHT31;62585;49.706;18.216;2023-08-17T06:37:03;24.92;76.79
74224;SHT31;62585;49.706;18.216;2023-08-17T06:39:30;24.75;77.23
74224;SHT31;62585;49.706;18.216;2023-08-17T06:41:56;24.58;77.26
74224;SHT31;62585;49.706;18.216;2023-08-17T06:44:22;24.79;77.79
74224;SHT31;62585;49.706;18.216;2023-08-17T06:46:47;24.76;77.91
74224;SHT31;62585;49.706;18.216;2023-08-17T06:49:13;24.88;77.58
74224;SHT31;62585;49.706;18.216;2023-08-17T06:51:39;24.97;76.92
74224;SHT31;62585;49.706;18.216;2023-08-17T06:54:07;24.75;76.62
74224;SHT31;62585;49.706;18.216;2023-08-17T06:56:33;25.07;76.29
74224;SHT31;62585;49.706;18.216;2023-08-17T06:58:59;24.96;76.68
74224;SHT31;62585;49.706;18.216;2023-08-17T07:01:24;25.05;75.88
74224;SHT31;62585;49.706;18.216;2023-08-17T07:03:50;25.05;76.99
74224;SHT31;62585;49.706;18.216;2023-08-17T07:06:16;25.30;75.18
74224;SHT31;62585;49.706;18.216;2023-08-17T07:08:42;25.51;75.43
74224;SHT31;62585;49.706;18.216;2023-08-17T07:11:08;25.47;75.46
74224;SHT31;62585;49.706;18.216;2023-08-17T07:13:35;25.57;74.59
74224;SHT31;62585;49.706;18.216;2023-08-17T07:16:00;25.41;76.00
74224;SHT31;62585;49.706;18.216;2023-08-17T07:18:26;25.45;74.94
74224;SHT31;62585;49.706;18.216;2023-08-17T07:20:52;25.65;73.83
74224;SHT31;62585;49.706;18.216;2023-08-17T07:23:18;25.63;74.77
74224;SHT31;62585;49.706;18.216;2023-08-17T07:25:44;25.85;73.61
74224;SHT31;62585;49.706;18.216;2023-08-17T07:28:10;25.57;73.96
74224;SHT31;62585;49.706;18.216;2023-08-17T07:30:35;25.57;75.14
74224;SHT31;62585;49.706;18.216;2023-08-17T07:33:01;25.64;74.44
74224;SHT31;62585;49.706;18.216;2023-08-17T07:35:27;25.70;74.58
74224;SHT31;62585;49.706;18.216;2023-08-17T07:37:53;25.78;74.50
74224;SHT31;62585;49.706;18.216;2023-08-17T07:40:19;26.03;72.88
74224;SHT31;62585;49.706;18.216;2023-08-17T07:42:45;26.08;72.68
74224;SHT31;62585;49.706;18.216;2023-08-17T07:45:11;26.28;73.19
74224;SHT31;62585;49.706;18.216;2023-08-17T07:47:37;26.15;73.98
74224;SHT31;62585;49.706;18.216;2023-08-17T07:50:04;26.30;73.01
74224;SHT31;62585;49.706;18.216;2023-08-17T07:52:30;26.73;72.24
74224;SHT31;62585;49.706;18.216;2023-08-17T07:54:56;26.49;71.25
74224;SHT31;62585;49.706;18.216;2023-08-17T07:57:22;26.81;72.71
74224;SHT31;62585;49.706;18.216;2023-08-17T07:59:48;26.92;70.86
74224;SHT31;62585;49.706;18.216;2023-08-17T08:02:14;26.60;71.48
74224;SHT31;62585;49.706;18.216;2023-08-17T08:04:40;26.73;72.57
74224;SHT31;62585;49.706;18.216;2023-08-17T08:07:06;26.87;71.12
74224;SHT31;62585;49.706;18.216;2023-08-17T08:09:31;27.16;70.73
74224;SHT31;62585;49.706;18.216;2023-08-17T08:11:57;26.97;71.84
74224;SHT31;62585;49.706;18.216;2023-08-17T08:14:23;26.95;72.19
74224;SHT31;62585;49.706;18.216;2023-08-17T08:16:50;27.05;71.39
74224;SHT31;62585;49.706;18.216;2023-08-17T08:19:16;27.16;70.65
74224;SHT31;62585;49.706;18.216;2023-08-17T08:21:42;26.95;70.67
74224;SHT31;62585;49.706;18.216;2023-08-17T08:24:07;27.08;70.48
74224;SHT31;62585;49.706;18.216;2023-08-17T08:26:33;26.95;71.45
74224;SHT31;62585;49.706;18.216;2023-08-17T08:29:00;26.87;72.58
74224;SHT31;62585;49.706;18.216;2023-08-17T08:31:25;27.14;70.76
74224;SHT31;62585;49.706;18.216;2023-08-17T08:33:51;27.11;71.35
74224;SHT31;62585;49.706;18.216;2023-08-17T08:36:18;27.18;70.19
74224;SHT31;62585;49.706;18.216;2023-08-17T08:38:44;27.02;70.60
74224;SHT31;62585;49.706;18.216;2023-08-17T08:41:11;27.02;69.77
74224;SHT31;62585;49.706;18.216;2023-08-17T08:43:38;27.19;70.01
74224;SHT31;62585;49.706;18.216;2023-08-17T08:46:05;27.47;69.78
74224;SHT31;62585;49.706;18.216;2023-08-17T08:48:31;27.52;69.61
74224;SHT31;62585;49.706;18.216;2023-08-17T08:51:00;27.47;69.51
74224;SHT31;62585;49.706;18.216;2023-08-17T08:53:37;27.45;70.97
74224;SHT31;62585;49.706;18.216;2023-08-17T08:56:04;27.86;69.67
74224;SHT31;62585;49.706;18.216;2023-08-17T08:58:33;28.11;70.21
74224;SHT31;62585;49.706;18.216;2023-08-17T09:01:00;28.22;67.22
74224;SHT31;62585;49.706;18.216;2023-08-17T09:03:27;28.55;67.75
74224;SHT31;62585;49.706;18.216;2023-08-17T09:05:53;28.02;68.18
74224;SHT31;62585;49.706;18.216;2023-08-17T09:08:22;28.22;66.77
74224;SHT31;62585;49.706;18.216;2023-08-17T09:10:49;28.47;67.19
74224;SHT31;62585;49.706;18.216;2023-08-17T09:13:15;28.72;66.47
74224;SHT31;62585;49.706;18.216;2023-08-17T09:15:42;29.00;64.28
74224;SHT31;62585;49.706;18.216;2023-08-17T09:18:07;28.96;66.16
74224;SHT31;62585;49.706;18.216;2023-08-17T09:20:43;29.37;67.16
74224;SHT31;62585;49.706;18.216;2023-08-17T09:23:15;29.00;62.03
74224;SHT31;62585;49.706;18.216;2023-08-17T09:25:43;29.07;64.32
74224;SHT31;62585;49.706;18.216;2023-08-17T09:28:14;28.79;66.02
74224;SHT31;62585;49.706;18.216;2023-08-17T09:33:26;28.87;64.40
74224;SHT31;62585;49.706;18.216;2023-08-17T09:35:53;29.15;63.55
74224;SHT31;62585;49.706;18.216;2023-08-17T09:38:20;29.33;62.54
74224;SHT31;62585;49.706;18.216;2023-08-17T09:40:47;29.54;63.76
74224;SHT31;62585;49.706;18.216;2023-08-17T09:43:16;29.75;61.22
74224;SHT31;62585;49.706;18.216;2023-08-17T09:45:43;30.00;61.07
74224;SHT31;62585;49.706;18.216;2023-08-17T09:48:17;29.96;62.26
74224;SHT31;62585;49.706;18.216;2023-08-17T09:50:44;30.02;61.36
74224;SHT31;62585;49.706;18.216;2023-08-17T09:53:17;30.20;63.27
74224;SHT31;62585;49.706;18.216;2023-08-17T09:55:47;30.09;59.23
74224;SHT31;62585;49.706;18.216;2023-08-17T09:58:13;30.58;61.41
74224;SHT31;62585;49.706;18.216;2023-08-17T10:00:44;30.30;60.94
74224;SHT31;62585;49.706;18.216;2023-08-17T10:03:13;30.26;60.43
74224;SHT31;62585;49.706;18.216;2023-08-17T10:05:40;30.29;61.48
74224;SHT31;62585;49.706;18.216;2023-08-17T10:08:08;30.27;61.09
74224;SHT31;62585;49.706;18.216;2023-08-17T10:10:40;30.20;60.85
74224;SHT31;62585;49.706;18.216;2023-08-17T10:13:09;30.14;59.22
74224;SHT31;62585;49.706;18.216;2023-08-17T10:15:59;30.64;58.71
74224;SHT31;62585;49.706;18.216;2023-08-17T10:18:38;30.61;59.59
74224;SHT31;62585;49.706;18.216;2023-08-17T10:21:13;30.44;61.49
74224;SHT31;62585;49.706;18.216;2023-08-17T10:23:44;30.72;59.74
74224;SHT31;62585;49.706;18.216;2023-08-17T10:26:12;30.79;61.94
74224;SHT31;62585;49.706;18.216;2023-08-17T10:28:39;30.63;57.58
74224;SHT31;62585;49.706;18.216;2023-08-17T10:31:05;30.86;56.43
74224;SHT31;62585;49.706;18.216;2023-08-17T10:33:32;31.05;55.82
74224;SHT31;62585;49.706;18.216;2023-08-17T10:36:00;31.08;55.21
74224;SHT31;62585;49.706;18.216;2023-08-17T10:38:26;31.42;57.06
74224;SHT31;62585;49.706;18.216;2023-08-17T10:41:12;31.36;57.26
74224;SHT31;62585;49.706;18.216;2023-08-17T10:43:58;31.32;55.97
74224;SHT31;62585;49.706;18.216;2023-08-17T10:46:37;30.92;56.72
74224;SHT31;62585;49.706;18.216;2023-08-17T10:49:25;30.81;57.72
74224;SHT31;62585;49.706;18.216;2023-08-17T10:52:04;30.54;55.99
74224;SHT31;62585;49.706;18.216;2023-08-17T10:54:41;30.65;59.41
74224;SHT31;62585;49.706;18.216;2023-08-17T10:57:41;30.56;58.90
74224;SHT31;62585;49.706;18.216;2023-08-17T11:00:13;30.58;58.53
74224;SHT31;62585;49.706;18.216;2023-08-17T11:02:43;30.64;60.62
74224;SHT31;62585;49.706;18.216;2023-08-17T11:05:10;30.78;57.58
74224;SHT31;62585;49.706;18.216;2023-08-17T11:07:41;30.61;59.48
74224;SHT31;62585;49.706;18.216;2023-08-17T11:12:45;30.44;60.12
74224;SHT31;62585;49.706;18.216;2023-08-17T11:15:11;30.41;57.89
74224;SHT31;62585;49.706;18.216;2023-08-17T11:17:37;30.47;57.31
74224;SHT31;62585;49.706;18.216;2023-08-17T11:20:03;30.16;55.77
74224;SHT31;62585;49.706;18.216;2023-08-17T11:22:30;30.13;57.53
74224;SHT31;62585;49.706;18.216;2023-08-17T11:24:57;29.99;60.74
74224;SHT31;62585;49.706;18.216;2023-08-17T11:27:24;29.68;58.21
74224;SHT31;62585;49.706;18.216;2023-08-17T11:29:50;29.25;58.24
74224;SHT31;62585;49.706;18.216;2023-08-17T11:32:17;29.14;59.36
74224;SHT31;62585;49.706;18.216;2023-08-17T11:34:43;28.70;59.79
74224;SHT31;62585;49.706;18.216;2023-08-17T11:37:11;28.52;61.02
74224;SHT31;62585;49.706;18.216;2023-08-17T11:39:37;28.48;61.86
74224;SHT31;62585;49.706;18.216;2023-08-17T11:42:03;28.59;63.31
74224;SHT31;62585;49.706;18.216;2023-08-17T11:44:29;27.33;62.75
74224;SHT31;62585;49.706;18.216;2023-08-17T11:46:55;26.29;63.71
74224;SHT31;62585;49.706;18.216;2023-08-17T11:49:21;25.57;65.30
74224;SHT31;62585;49.706;18.216;2023-08-17T11:51:51;25.27;68.72
74224;SHT31;62585;49.706;18.216;2023-08-17T11:54:17;25.24;66.44
74224;SHT31;62585;49.706;18.216;2023-08-17T11:56:42;24.86;67.10
74224;SHT31;62585;49.706;18.216;2023-08-17T11:59:13;24.85;67.15
74224;SHT31;62585;49.706;18.216;2023-08-17T12:01:44;24.06;68.09
74224;SHT31;62585;49.706;18.216;2023-08-17T12:04:10;23.73;70.12
74224;SHT31;62585;49.706;18.216;2023-08-17T12:06:43;23.24;70.40
74224;SHT31;62585;49.706;18.216;2023-08-17T12:09:09;23.07;72.19
74224;SHT31;62585;49.706;18.216;2023-08-17T12:11:36;23.03;72.86
74224;SHT31;62585;49.706;18.216;2023-08-17T12:14:08;22.71;73.24
74224;SHT31;62585;49.706;18.216;2023-08-17T12:16:45;22.94;72.31
74224;SHT31;62585;49.706;18.216;2023-08-17T12:19:12;22.83;71.20
74224;SHT31;62585;49.706;18.216;2023-08-17T12:21:40;22.93;70.33
74224;SHT31;62585;49.706;18.216;2023-08-17T12:24:08;22.86;70.47
74224;SHT31;62585;49.706;18.216;2023-08-17T12:26:34;23.08;70.67
74224;SHT31;62585;49.706;18.216;2023-08-17T12:29:04;23.11;70.20
74224;SHT31;62585;49.706;18.216;2023-08-17T12:31:31;23.14;70.40
74224;SHT31;62585;49.706;18.216;2023-08-17T12:33:57;22.97;70.78
74224;SHT31;62585;49.706;18.216;2023-08-17T12:36:23;22.96;71.80
74224;SHT31;62585;49.706;18.216;2023-08-17T12:38:49;23.17;75.37
74224;SHT31;62585;49.706;18.216;2023-08-17T12:41:15;23.34;74.59
74224;SHT31;62585;49.706;18.216;2023-08-17T12:43:41;23.22;74.38
74224;SHT31;62585;49.706;18.216;2023-08-17T12:46:06;23.19;72.92
74224;SHT31;62585;49.706;18.216;2023-08-17T12:48:32;23.41;74.81
74224;SHT31;62585;49.706;18.216;2023-08-17T12:50:58;23.38;74.98
74224;SHT31;62585;49.706;18.216;2023-08-17T12:53:24;23.25;75.42
74224;SHT31;62585;49.706;18.216;2023-08-17T12:55:50;23.17;75.99
74224;SHT31;62585;49.706;18.216;2023-08-17T12:58:16;23.21;75.02
74224;SHT31;62585;49.706;18.216;2023-08-17T13:00:42;23.12;73.72
74224;SHT31;62585;49.706;18.216;2023-08-17T13:03:07;23.34;75.48
74224;SHT31;62585;49.706;18.216;2023-08-17T13:05:33;23.18;76.18
74224;SHT31;62585;49.706;18.216;2023-08-17T13:07:59;23.10;76.69
74224;SHT31;62585;49.706;18.216;2023-08-17T13:10:25;22.98;75.16
74224;SHT31;62585;49.706;18.216;2023-08-17T13:12:51;23.18;77.94
74224;SHT31;62585;49.706;18.216;2023-08-17T13:15:23;23.18;75.68
74224;SHT31;62585;49.706;18.216;2023-08-17T13:17:49;23.28;75.85
74224;SHT31;62585;49.706;18.216;2023-08-17T13:20:15;23.24;76.66
74224;SHT31;62585;49.706;18.216;2023-08-17T13:22:40;23.32;76.45
74224;SHT31;62585;49.706;18.216;2023-08-17T13:25:07;23.15;78.32
74224;SHT31;62585;49.706;18.216;2023-08-17T13:27:32;23.15;77.56
74224;SHT31;62585;49.706;18.216;2023-08-17T13:29:58;22.87;78.24
74224;SHT31;62585;49.706;18.216;2023-08-17T13:32:25;23.06;78.04
74224;SHT31;62585;49.706;18.216;2023-08-17T13:34:51;23.14;77.38
74224;SHT31;62585;49.706;18.216;2023-08-17T13:37:17;23.15;78.40
74224;SHT31;62585;49.706;18.216;2023-08-17T13:39:43;23.24;78.15
74224;SHT31;62585;49.706;18.216;2023-08-17T13:42:09;23.04;78.64
74224;SHT31;62585;49.706;18.216;2023-08-17T13:44:35;23.03;78.67
74224;SHT31;62585;49.706;18.216;2023-08-17T13:47:01;22.98;78.42
74224;SHT31;62585;49.706;18.216;2023-08-17T13:49:27;23.06;78.56
74224;SHT31;62585;49.706;18.216;2023-08-17T13:51:55;23.10;79.31
74224;SHT31;62585;49.706;18.216;2023-08-17T13:54:23;23.29;78.66
74224;SHT31;62585;49.706;18.216;2023-08-17T13:56:48;23.27;79.33
74224;SHT31;62585;49.706;18.216;2023-08-17T13:59:14;23.35;79.11
74224;SHT31;62585;49.706;18.216;2023-08-17T14:01:40;23.38;78.90
74224;SHT31;62585;49.706;18.216;2023-08-17T14:04:06;23.48;79.15
74224;SHT31;62585;49.706;18.216;2023-08-17T14:06:37;23.48;77.79
74224;SHT31;62585;49.706;18.216;2023-08-17T14:09:04;23.28;77.79
74224;SHT31;62585;49.706;18.216;2023-08-17T14:11:30;23.42;77.53
74224;SHT31;62585;49.706;18.216;2023-08-17T14:13:56;23.39;77.60
74224;SHT31;62585;49.706;18.216;2023-08-17T14:16:22;23.54;78.68
74224;SHT31;62585;49.706;18.216;2023-08-17T14:18:48;23.63;77.97
74224;SHT31;62585;49.706;18.216;2023-08-17T14:21:14;23.62;76.84
74224;SHT31;62585;49.706;18.216;2023-08-17T14:23:40;23.54;76.74
74224;SHT31;62585;49.706;18.216;2023-08-17T14:26:05;23.70;77.26
74224;SHT31;62585;49.706;18.216;2023-08-17T14:28:31;23.59;77.20
74224;SHT31;62585;49.706;18.216;2023-08-17T14:30:57;23.72;77.65
74224;SHT31;62585;49.706;18.216;2023-08-17T14:33:23;23.82;76.71
74224;SHT31;62585;49.706;18.216;2023-08-17T14:35:49;23.86;76.28
74224;SHT31;62585;49.706;18.216;2023-08-17T14:38:16;23.86;77.13
74224;SHT31;62585;49.706;18.216;2023-08-17T14:40:46;23.65;76.13
74224;SHT31;62585;49.706;18.216;2023-08-17T14:43:13;23.24;77.10
74224;SHT31;62585;49.706;18.216;2023-08-17T14:45:42;23.56;77.25
74224;SHT31;62585;49.706;18.216;2023-08-17T14:48:08;23.58;76.42
74224;SHT31;62585;49.706;18.216;2023-08-17T14:50:35;23.59;76.94
74224;SHT31;62585;49.706;18.216;2023-08-17T14:53:01;23.80;76.13
74224;SHT31;62585;49.706;18.216;2023-08-17T14:55:34;23.86;76.18
74224;SHT31;62585;49.706;18.216;2023-08-17T14:58:00;23.77;76.79
74224;SHT31;62585;49.706;18.216;2023-08-17T15:00:26;23.97;75.70
74224;SHT31;62585;49.706;18.216;2023-08-17T15:02:56;23.94;76.08
74224;SHT31;62585;49.706;18.216;2023-08-17T15:05:23;23.84;76.23
74224;SHT31;62585;49.706;18.216;2023-08-17T15:07:49;24.02;75.31
74224;SHT31;62585;49.706;18.216;2023-08-17T15:10:15;24.14;76.01
74224;SHT31;62585;49.706;18.216;2023-08-17T15:12:42;24.18;76.35
74224;SHT31;62585;49.706;18.216;2023-08-17T15:15:08;24.37;76.40
74224;SHT31;62585;49.706;18.216;2023-08-17T15:17:34;24.54;76.43
74224;SHT31;62585;49.706;18.216;2023-08-17T15:20:00;24.64;74.96
74224;SHT31;62585;49.706;18.216;2023-08-17T15:22:26;24.57;74.71
74224;SHT31;62585;49.706;18.216;2023-08-17T15:24:53;24.48;74.01
74224;SHT31;62585;49.706;18.216;2023-08-17T15:27:19;24.42;76.01
74224;SHT31;62585;49.706;18.216;2023-08-17T15:29:44;24.54;75.65
74224;SHT31;62585;49.706;18.216;2023-08-17T15:32:10;24.69;75.03
74224;SHT31;62585;49.706;18.216;2023-08-17T15:34:36;24.72;74.95